Time;durP1;ratioP1;P1;durP2;ratioP2;P2;SDS_P1;SDS_P2;PMS_P1;PMS_P2;Temp;Humidity;BMP_temperature;BMP_pressure;BME280_temperature;BME280_humidity;BME280_pressure;Samples;Min_cycle;Max_cycle;Signal;HPM_P1;HPM_P2
2021/08/31 00:00:59;;;;;;;34.63;22.77;;;;;;;14.99;94.09;99550.06;1730470;82;25793;-61
2021/08/31 00:03:26;;;;;;;34.43;22.98;;;;;;;14.97;94.21;99549.05;1730413;82;28186;-61
2021/08/31 00:05:52;;;;;;;33.88;22.67;;;;;;;14.97;94.09;99546.91;1730244;82;25733;-61
2021/08/31 00:08:22;;;;;;;32.28;22.90;;;;;;;14.96;94.17;99543.95;1730459;82;25754;-61
2021/08/31 00:10:49;;;;;;;31.82;21.05;;;;;;;14.95;94.21;99541.81;1730637;82;26282;-62
2021/08/31 00:13:16;;;;;;;35.30;21.02;;;;;;;14.94;94.33;99540.23;1730540;82;25793;-61
2021/08/31 00:15:42;;;;;;;31.68;20.92;;;;;;;14.92;94.27;99541.94;1730720;82;28335;-61
2021/08/31 00:18:09;;;;;;;30.70;19.55;;;;;;;14.92;94.26;99533.00;1699507;82;25726;-61
2021/08/31 00:20:35;;;;;;;27.55;18.12;;;;;;;14.91;94.20;99532.22;1730436;82;25726;-61
2021/08/31 00:23:02;;;;;;;24.12;16.25;;;;;;;14.89;94.04;99534.48;1730483;82;25893;-61
2021/08/31 00:25:28;;;;;;;26.85;16.77;;;;;;;14.86;93.96;99536.55;1730719;82;25833;-61
2021/08/31 00:27:55;;;;;;;25.77;15.48;;;;;;;14.83;93.81;99537.28;1699351;82;27327;-61
2021/08/31 00:30:21;;;;;;;24.77;15.48;;;;;;;14.77;93.48;99535.19;1730623;82;26089;-61
2021/08/31 00:32:47;;;;;;;21.07;15.72;;;;;;;14.74;93.67;99532.05;1699558;82;25830;-61
2021/08/31 00:35:14;;;;;;;26.70;15.80;;;;;;;14.71;93.81;99531.94;1730360;82;25784;-60
2021/08/31 00:37:41;;;;;;;20.17;13.40;;;;;;;14.69;93.89;99525.52;1730635;82;25784;-61
2021/08/31 00:40:10;;;;;;;22.75;14.58;;;;;;;14.65;93.81;99522.48;1730561;82;27420;-61
2021/08/31 00:42:37;;;;;;;20.30;15.03;;;;;;;14.62;93.87;99527.27;1730655;82;25730;-61
2021/08/31 00:45:06;;;;;;;29.80;14.55;;;;;;;14.61;93.87;99525.13;1730690;82;25781;-60
2021/08/31 00:47:32;;;;;;;25.30;13.95;;;;;;;14.57;93.68;99526.94;1699807;82;25713;-61
2021/08/31 00:49:59;;;;;;;25.52;13.45;;;;;;;14.54;93.94;99523.56;1730424;82;25759;-60
2021/08/31 00:52:25;;;;;;;21.60;14.15;;;;;;;14.53;93.97;99516.55;1730702;82;27285;-61
2021/08/31 00:54:52;;;;;;;24.47;14.75;;;;;;;14.51;94.12;99522.93;1730475;82;25747;-61
2021/08/31 00:57:19;;;;;;;25.72;14.15;;;;;;;14.50;94.31;99515.31;1699393;82;26221;-61
2021/08/31 00:59:45;;;;;;;25.92;14.35;;;;;;;14.48;94.16;99509.45;1730718;82;25806;-61
2021/08/31 01:02:12;;;;;;;26.93;14.55;;;;;;;14.46;94.17;99513.09;1730642;82;25664;-60
2021/08/31 01:04:38;;;;;;;27.87;15.63;;;;;;;14.47;94.42;99513.33;1730616;82;27948;-61
2021/08/31 01:07:05;;;;;;;28.23;15.60;;;;;;;14.45;94.49;99516.95;1730464;82;25803;-60
2021/08/31 01:09:32;;;;;;;30.00;15.03;;;;;;;14.45;94.52;99517.53;1730660;82;25719;-60
2021/08/31 01:11:58;;;;;;;29.05;14.75;;;;;;;14.44;94.46;99515.94;1730561;82;26312;-62
2021/08/31 01:14:26;;;;;;;35.92;16.35;;;;;;;14.43;94.74;99515.73;1730727;82;25697;-60
2021/08/31 01:16:54;;;;;;;31.20;15.63;;;;;;;14.44;94.75;99520.83;1730557;82;27408;-61
2021/08/31 01:19:30;;;;;;;36.03;16.40;;;;;;;14.43;94.81;99521.97;1730410;82;25749;-60
2021/08/31 01:22:09;;;;;;;29.20;15.88;;;;;;;14.42;94.90;99522.31;1730354;82;26353;-60
2021/08/31 01:24:46;;;;;;;34.03;15.93;;;;;;;14.44;95.16;99524.10;1730773;82;26237;-60
2021/08/31 01:27:13;;;;;;;30.88;15.23;;;;;;;14.45;95.29;99518.89;1730468;82;26465;-60
2021/08/31 01:29:40;;;;;;;35.17;16.67;;;;;;;14.46;95.18;99521.27;1730593;82;28202;-60
2021/08/31 01:32:08;;;;;;;28.73;15.35;;;;;;;14.47;95.32;99523.41;1730502;82;25777;-60
2021/08/31 01:34:35;;;;;;;31.65;16.42;;;;;;;14.48;95.30;99523.05;1730689;82;25797;-61
2021/08/31 01:37:01;;;;;;;32.70;16.48;;;;;;;14.49;95.33;99522.47;1730497;82;25748;-61
2021/08/31 01:39:28;;;;;;;32.85;17.17;;;;;;;14.50;95.42;99524.06;1730603;82;25762;-61
2021/08/31 01:41:54;;;;;;;33.45;17.00;;;;;;;14.53;95.50;99524.14;1730251;82;27302;-62
2021/08/31 01:44:21;;;;;;;27.87;16.10;;;;;;;14.52;95.30;99528.02;1730485;82;25770;-62
2021/08/31 01:46:47;;;;;;;37.73;18.10;;;;;;;14.53;95.47;99530.94;1730581;82;25892;-61
2021/08/31 01:49:13;;;;;;;37.80;17.92;;;;;;;14.55;95.49;99529.23;1730360;82;25793;-62
2021/08/31 01:51:40;;;;;;;35.85;17.65;;;;;;;14.56;95.48;99529.46;1730494;82;25768;-62
2021/08/31 01:54:06;;;;;;;37.25;18.15;;;;;;;14.57;95.52;99527.75;1730622;82;27437;-62
2021/08/31 01:56:33;;;;;;;29.57;15.75;;;;;;;14.56;95.35;99524.80;1730386;82;25701;-62
2021/08/31 01:58:59;;;;;;;28.98;16.27;;;;;;;14.56;95.12;99524.80;1730464;82;25772;-62
2021/08/31 02:01:25;;;;;;;29.65;14.93;;;;;;;14.54;94.86;99525.73;1730604;82;25621;-60
2021/08/31 02:03:52;;;;;;;31.05;16.20;;;;;;;14.52;94.83;99520.41;1730464;82;26391;-60
2021/08/31 02:06:18;;;;;;;31.15;15.80;;;;;;;14.51;94.85;99520.20;1730481;82;27326;-61
2021/08/31 02:08:45;;;;;;;27.80;15.38;;;;;;;14.50;94.83;99524.06;1730514;82;25761;-60
2021/08/31 02:11:11;;;;;;;28.10;15.93;;;;;;;14.47;94.83;99526.94;1730416;82;26521;-61
2021/08/31 02:13:37;;;;;;;27.35;15.58;;;;;;;14.47;94.91;99528.30;1730651;82;25762;-61
2021/08/31 02:16:04;;;;;;;23.38;14.33;;;;;;;14.47;94.99;99522.05;1730581;82;25777;-61
2021/08/31 02:18:31;;;;;;;24.50;14.18;;;;;;;14.45;94.83;99525.11;1730480;82;27962;-61
2021/08/31 02:20:57;;;;;;;23.87;14.47;;;;;;;14.43;94.65;99526.05;1730414;82;25721;-61
2021/08/31 02:23:23;;;;;;;25.30;15.60;;;;;;;14.40;94.46;99525.38;1730538;82;25688;-61
2021/08/31 02:25:50;;;;;;;22.85;14.45;;;;;;;14.37;94.52;99521.45;1730359;82;26583;-61
2021/08/31 02:28:16;;;;;;;19.87;13.78;;;;;;;14.33;94.27;99521.92;1730409;82;25810;-61
2021/08/31 02:30:42;;;;;;;20.23;14.05;;;;;;;14.31;94.38;99520.71;1730611;82;28389;-61
2021/08/31 02:33:09;;;;;;;19.82;13.22;;;;;;;14.28;94.39;99517.33;1730213;82;25705;-61
2021/08/31 02:35:35;;;;;;;22.48;13.95;;;;;;;14.26;94.35;99517.68;1730517;82;25733;-61
2021/08/31 02:38:01;;;;;;;23.57;13.10;;;;;;;14.24;94.23;99513.75;1730620;82;25769;-61
2021/08/31 02:40:27;;;;;;;20.30;13.72;;;;;;;14.20;94.11;99517.17;1730660;82;25737;-61
2021/08/31 02:42:54;;;;;;;21.65;13.62;;;;;;;14.18;94.14;99515.92;1725917;82;27527;-61
2021/08/31 02:45:20;;;;;;;25.57;13.93;;;;;;;14.15;94.11;99523.45;1717383;83;26413;-61
2021/08/31 02:47:47;;;;;;;19.87;13.03;;;;;;;14.12;94.15;99513.27;1717287;83;25738;-61
2021/08/31 02:50:13;;;;;;;19.98;13.00;;;;;;;14.08;94.11;99510.47;1717384;82;25871;-61
2021/08/31 02:52:40;;;;;;;15.85;12.20;;;;;;;14.07;94.16;99508.88;1717538;82;25765;-61
2021/08/31 02:55:08;;;;;;;17.02;12.13;;;;;;;14.04;94.16;99508.22;1717283;83;29305;-61
2021/08/31 02:57:34;;;;;;;18.80;13.10;;;;;;;14.00;94.13;99510.85;1717476;83;25680;-61
2021/08/31 03:00:01;;;;;;;18.25;12.30;;;;;;;13.99;94.26;99505.77;1717483;82;25694;-61
2021/08/31 03:02:27;;;;;;;17.73;12.95;;;;;;;13.99;94.55;99511.98;1717096;82;26005;-60
2021/08/31 03:04:54;;;;;;;21.05;13.32;;;;;;;13.99;94.79;99503.83;1691209;83;25730;-61
2021/08/31 03:07:20;;;;;;;20.37;14.40;;;;;;;13.99;94.71;99502.47;1717429;83;28279;-61
2021/08/31 03:09:47;;;;;;;21.17;13.65;;;;;;;13.99;94.74;99509.27;1717174;83;25701;-61
2021/08/31 03:12:14;;;;;;;19.67;13.80;;;;;;;13.99;94.85;99501.69;1717377;82;25845;-61
2021/08/31 03:14:40;;;;;;;22.37;14.68;;;;;;;13.99;95.02;99504.41;1717438;82;25770;-61
2021/08/31 03:17:09;;;;;;;19.92;14.70;;;;;;;14.00;95.11;99509.49;1717309;83;26336;-61
2021/08/31 03:19:36;;;;;;;21.52;14.85;;;;;;;14.01;95.19;99505.64;1717320;83;27424;-61
2021/08/31 03:22:05;;;;;;;21.17;15.35;;;;;;;14.04;95.30;99502.00;1717366;83;25656;-61
2021/08/31 03:24:32;;;;;;;25.15;14.98;;;;;;;14.04;95.35;99497.34;1717537;83;26070;-61
2021/08/31 03:26:59;;;;;;;26.07;16.52;;;;;;;14.06;95.41;99492.91;1717404;83;25726;-61
2021/08/31 03:29:25;;;;;;;36.55;16.32;;;;;;;14.06;95.33;99498.35;1717401;83;25769;-61
2021/08/31 03:31:52;;;;;;;24.12;16.02;;;;;;;14.05;95.34;99504.38;1717451;83;29197;-61
2021/08/31 03:34:18;;;;;;;24.95;16.07;;;;;;;14.05;95.38;99498.94;1717153;83;25844;-61
2021/08/31 03:36:45;;;;;;;28.55;16.52;;;;;;;14.07;95.42;99502.66;1717391;83;25734;-60
2021/08/31 03:39:12;;;;;;;27.93;16.32;;;;;;;14.06;95.37;99501.85;1717263;82;25785;-61
2021/08/31 03:41:38;;;;;;;25.88;16.02;;;;;;;14.06;95.19;99499.71;1717267;83;26391;-61
2021/08/31 03:44:05;;;;;;;23.30;16.60;;;;;;;14.05;95.20;99502.23;1732576;82;27559;-61
2021/08/31 03:46:32;;;;;;;28.70;15.78;;;;;;;14.04;95.10;99495.98;1738891;82;25732;-61
2021/08/31 03:48:59;;;;;;;23.15;15.90;;;;;;;14.01;94.91;99496.13;1738891;82;25724;-60
2021/08/31 03:51:25;;;;;;;26.93;15.25;;;;;;;13.98;94.63;99494.69;1738817;82;26401;-61
2021/08/31 03:53:52;;;;;;;19.30;14.93;;;;;;;13.96;94.64;99495.58;1738995;82;25728;-61
2021/08/31 03:56:18;;;;;;;21.70;15.20;;;;;;;13.94;94.48;99504.66;1738727;82;27170;-61
2021/08/31 03:58:44;;;;;;;24.80;15.60;;;;;;;13.90;94.41;99503.22;1738946;82;25753;-61
2021/08/31 04:01:11;;;;;;;24.75;15.75;;;;;;;13.88;94.20;99510.16;1739320;82;25754;-61
2021/08/31 04:03:37;;;;;;;25.82;15.32;;;;;;;13.83;94.13;99506.55;1739028;82;25744;-60
2021/08/31 04:06:04;;;;;;;21.95;14.03;;;;;;;13.81;94.06;99511.55;1739303;82;25695;-61
2021/08/31 04:08:30;;;;;;;22.25;14.38;;;;;;;13.77;93.98;99514.76;1739242;82;27374;-61
2021/08/31 04:10:57;;;;;;;22.67;15.30;;;;;;;13.74;93.95;99525.51;1739034;82;25772;-61
2021/08/31 04:13:24;;;;;;;23.87;14.98;;;;;;;13.71;93.97;99525.66;1739314;82;25880;-61
2021/08/31 04:15:50;;;;;;;24.18;15.55;;;;;;;13.68;94.10;99524.98;1711902;82;26332;-61
2021/08/31 04:18:16;;;;;;;22.77;14.83;;;;;;;13.67;94.21;99525.33;1739046;82;25811;-60
2021/08/31 04:20:43;;;;;;;22.15;15.32;;;;;;;13.66;94.24;99529.98;1739361;82;27952;-60
2021/08/31 04:23:09;;;;;;;22.45;15.30;;;;;;;13.63;94.18;99531.45;1739161;82;25713;-59
2021/08/31 04:25:36;;;;;;;24.02;16.05;;;;;;;13.62;94.21;99524.46;1739165;82;25933;-60
2021/08/31 04:28:04;;;;;;;21.95;14.90;;;;;;;13.60;94.11;99527.29;1739271;82;25804;-60
2021/08/31 04:30:30;;;;;;;21.82;14.58;;;;;;;13.58;94.02;99532.28;1739300;82;26069;-60
2021/08/31 04:32:58;;;;;;;24.87;16.12;;;;;;;13.55;94.02;99539.22;1738946;82;27646;-60
2021/08/31 04:35:27;;;;;;;23.95;15.45;;;;;;;13.54;94.01;99538.20;1738792;82;26385;-60
2021/08/31 04:37:53;;;;;;;24.20;15.83;;;;;;;13.52;93.98;99535.83;1739105;82;25733;-60
2021/08/31 04:40:22;;;;;;;22.80;13.83;;;;;;;13.50;94.09;99542.19;1738671;82;26420;-60
2021/08/31 04:42:50;;;;;;;24.67;15.70;;;;;;;13.49;94.09;99547.97;1738676;82;25914;-61
2021/08/31 04:45:16;;;;;;;20.37;14.95;;;;;;;13.46;94.02;99545.36;1730616;82;27323;-61
2021/08/31 04:47:42;;;;;;;25.23;15.50;;;;;;;13.44;94.11;99542.98;1730415;82;25900;-62
2021/08/31 04:50:10;;;;;;;21.68;14.38;;;;;;;13.45;94.36;99539.72;1730535;82;26065;-61
2021/08/31 04:52:36;;;;;;;21.57;15.10;;;;;;;13.48;94.88;99534.15;1699442;82;25859;-61
2021/08/31 04:55:04;;;;;;;24.50;15.43;;;;;;;13.53;95.34;99539.33;1730360;82;25951;-61
2021/08/31 04:57:30;;;;;;;28.60;15.85;;;;;;;13.56;95.55;99538.06;1730556;82;27330;-62
2021/08/31 04:59:57;;;;;;;26.52;16.05;;;;;;;13.62;96.21;99538.59;1730546;82;25818;-66
2021/08/31 05:02:24;;;;;;;24.98;16.35;;;;;;;13.72;96.72;99539.45;1730395;82;25803;-66
2021/08/31 05:04:51;;;;;;;29.10;15.95;;;;;;;13.80;97.10;99543.16;1730380;82;25940;-64
2021/08/31 05:07:18;;;;;;;33.67;15.65;;;;;;;13.87;97.17;99537.11;1729856;82;25755;-64
2021/08/31 05:09:44;;;;;;;25.68;16.93;;;;;;;13.92;96.91;99534.92;1729864;82;27566;-64
2021/08/31 05:12:11;;;;;;;24.72;16.00;;;;;;;13.98;97.15;99532.75;1729409;82;25821;-65
2021/08/31 05:14:37;;;;;;;27.10;15.85;;;;;;;14.02;96.96;99525.45;1730011;82;25767;-65
2021/08/31 05:17:04;;;;;;;24.65;16.57;;;;;;;14.06;96.71;99527.69;1729846;82;26840;-66
2021/08/31 05:19:33;;;;;;;33.18;17.30;;;;;;;14.11;96.96;99533.44;1729989;82;25781;-65
2021/08/31 05:22:04;;;;;;;24.90;16.27;;;;;;;14.15;97.04;99533.75;1737258;81;28116;-66
2021/08/31 05:24:33;;;;;;;29.67;15.88;;;;;;;14.20;97.02;99531.34;1739988;81;25895;-67
2021/08/31 05:27:02;;;;;;;23.55;15.50;;;;;;;14.22;96.61;99529.61;1742059;81;25880;-67
2021/08/31 05:29:38;;;;;;;29.77;16.32;;;;;;;14.25;96.65;99530.27;1706927;81;26444;-65
2021/08/31 05:32:05;;;;;;;28.95;17.32;;;;;;;14.29;96.98;99528.45;1745877;81;25394;-65
2021/08/31 05:34:32;;;;;;;47.98;25.35;;;;;;;14.32;96.64;99523.63;1739669;81;27338;-61
2021/08/31 05:36:59;;;;;;;26.60;18.40;;;;;;;14.38;97.08;99522.23;1744723;81;26360;-63
2021/08/31 05:39:32;;;;;;;24.65;17.75;;;;;;;14.45;97.13;99529.20;1745250;81;25773;-63
2021/08/31 05:41:58;;;;;;;24.98;17.37;;;;;;;14.52;97.20;99521.77;1734742;81;25366;-63
2021/08/31 05:44:26;;;;;;;22.82;17.62;;;;;;;14.57;97.26;99525.03;1745787;81;25987;-62
2021/08/31 05:46:53;;;;;;;27.42;16.82;;;;;;;14.62;97.15;99525.33;1740011;81;28581;-63
2021/08/31 05:49:21;;;;;;;28.62;17.57;;;;;;;14.65;97.05;99525.21;1735077;81;26429;-59
2021/08/31 05:51:48;;;;;;;24.47;17.07;;;;;;;14.70;96.82;99532.52;1746635;81;25823;-63
2021/08/31 05:54:14;;;;;;;24.52;16.93;;;;;;;14.73;96.83;99528.31;1747510;81;26476;-63
2021/08/31 05:56:42;;;;;;;28.50;18.20;;;;;;;14.79;97.27;99526.88;1746200;81;25757;-64
2021/08/31 05:59:09;;;;;;;26.73;17.92;;;;;;;14.91;97.61;99526.77;1741983;81;27310;-63
2021/08/31 06:01:36;;;;;;;27.30;18.02;;;;;;;15.00;96.76;99527.11;1746350;81;25841;-63
2021/08/31 06:04:07;;;;;;;28.55;18.25;;;;;;;15.11;97.61;99523.47;1740528;81;25730;-63
2021/08/31 06:06:39;;;;;;;25.62;17.25;;;;;;;15.25;97.82;99524.91;1744170;81;25745;-63
2021/08/31 06:09:08;;;;;;;28.32;18.35;;;;;;;15.39;98.24;99532.02;1745141;81;26241;-63
2021/08/31 06:11:39;;;;;;;25.80;17.57;;;;;;;15.49;97.55;99530.06;1762729;80;28027;-63
2021/08/31 06:14:07;;;;;;;30.27;18.42;;;;;;;15.64;97.71;99531.68;1749758;81;26074;-62
2021/08/31 06:16:34;;;;;;;;;;;;;;;15.77;97.89;99522.80;1762291;80;25721;-62
2021/08/31 06:19:02;;;;;;;24.77;17.00;;;;;;;15.90;97.29;99517.94;1767398;80;26487;-62
2021/08/31 06:21:31;;;;;;;25.97;17.25;;;;;;;16.02;97.18;99509.56;1768491;80;26135;-62
2021/08/31 06:23:59;;;;;;;25.17;17.62;;;;;;;16.17;97.11;99502.41;1747568;81;29497;-62
2021/08/31 06:26:28;;;;;;;22.80;16.30;;;;;;;16.25;96.32;99506.25;1747756;81;25806;-63
2021/08/31 06:28:54;;;;;;;18.75;13.78;;;;;;;16.38;96.00;99506.84;1746480;81;25616;-63
2021/08/31 06:31:36;;;;;;;20.10;14.23;;;;;;;16.49;95.37;99506.99;1751631;81;25716;-63
2021/08/31 06:34:19;;;;;;;18.00;13.60;;;;;;;16.56;95.02;99511.77;1749052;81;25733;-63
2021/08/31 07:20:07;;;;;;;8.65;6.20;;;;;;;18.72;85.53;99530.41;1684872;83;25807;-65
2021/08/31 07:22:33;;;;;;;6.72;5.78;;;;;;;18.77;85.76;99527.30;1692759;83;26370;-65
2021/08/31 07:25:00;;;;;;;10.35;6.35;;;;;;;18.82;84.83;99525.56;1709269;83;28141;-65
2021/08/31 07:27:27;;;;;;;7.12;6.40;;;;;;;18.93;85.23;99532.49;1708289;83;25906;-65
2021/08/31 07:29:53;;;;;;;7.60;5.70;;;;;;;19.02;84.16;99537.83;1720470;82;25758;-67
2021/08/31 07:32:19;;;;;;;7.67;5.40;;;;;;;19.03;82.98;99540.78;1723640;78;25726;-66
2021/08/31 07:34:46;;;;;;;6.95;5.53;;;;;;;19.06;83.32;99528.25;1802425;78;25772;-65
2021/08/31 07:37:13;;;;;;;5.60;5.10;;;;;;;19.19;84.13;99536.34;1801288;78;27361;-66
2021/08/31 07:39:42;;;;;;;6.30;4.95;;;;;;;19.45;83.53;99539.95;1795425;78;25773;-66
2021/08/31 07:42:10;;;;;;;;;;;;;;;19.51;82.19;99537.60;1806175;78;25755;-66
2021/08/31 07:44:39;;;;;;;5.37;4.50;;;;;;;19.62;81.64;99531.56;1809945;78;25682;-65
2021/08/31 07:47:05;;;;;;;5.47;4.12;;;;;;;19.91;81.99;99535.16;1818321;78;26418;-65
2021/08/31 07:49:32;;;;;;;5.33;4.78;;;;;;;20.11;81.31;99530.69;1812926;78;27953;-66
2021/08/31 07:51:58;;;;;;;5.25;4.72;;;;;;;20.21;80.49;99534.58;1803838;78;26354;-65
2021/08/31 07:54:25;;;;;;;5.72;5.12;;;;;;;20.26;79.38;99530.07;1772559;80;25739;-65
2021/08/31 07:56:51;;;;;;;6.47;5.12;;;;;;;20.31;79.27;99520.06;1797724;79;26437;-65
2021/08/31 07:59:17;;;;;;;7.55;5.17;;;;;;;20.41;78.48;99533.00;1773618;80;26604;-66
2021/08/31 08:01:44;;;;;;;9.18;5.37;;;;;;;20.45;78.06;99534.36;1774728;80;27583;-67
2021/08/31 08:04:10;;;;;;;5.65;4.42;;;;;;;20.38;76.75;99536.55;1802983;78;25756;-66
2021/08/31 08:06:38;;;;;;;5.28;4.80;;;;;;;20.40;76.79;99538.31;1774699;80;25699;-66
2021/08/31 08:09:04;;;;;;;7.47;4.70;;;;;;;20.57;76.98;99536.72;1797892;79;25783;-66
2021/08/31 08:11:33;;;;;;;5.03;4.45;;;;;;;20.65;75.77;99541.63;1760817;79;26402;-65
2021/08/31 08:14:00;;;;;;;5.73;5.20;;;;;;;20.88;77.06;99539.22;1782674;80;27325;-65
2021/08/31 08:16:27;;;;;;;4.58;4.12;;;;;;;21.36;77.86;99537.08;1807951;78;25911;-67
2021/08/31 08:18:53;;;;;;;8.00;4.08;;;;;;;21.98;77.75;99545.97;1806210;78;26382;-67
2021/08/31 08:21:21;;;;;;;4.65;4.20;;;;;;;22.26;74.86;99546.15;1808921;78;26274;-66
2021/08/31 08:23:48;;;;;;;3.33;3.02;;;;;;;22.26;73.27;99544.17;1808503;78;25459;-67
2021/08/31 08:26:15;;;;;;;3.72;3.33;;;;;;;22.13;71.64;99538.36;1748765;81;27423;-67
2021/08/31 08:28:43;;;;;;;4.75;3.83;;;;;;;22.11;71.39;99529.73;1804267;79;25708;-66
2021/08/31 08:31:12;;;;;;;7.23;3.60;;;;;;;22.05;70.46;99531.38;1804225;79;25773;-64
2021/08/31 08:33:39;;;;;;;4.85;4.20;;;;;;;22.04;69.94;99526.27;1805294;78;25691;-66
2021/08/31 08:36:07;;;;;;;8.08;4.92;;;;;;;22.03;70.58;99518.58;1804778;79;26288;-66
2021/08/31 08:38:35;;;;;;;7.92;3.87;;;;;;;22.25;71.25;99519.18;1802287;79;27354;-67
2021/08/31 08:41:05;;;;;;;3.55;3.25;;;;;;;22.48;70.22;99517.84;1804807;79;25814;-63
2021/08/31 08:43:34;;;;;;;4.58;3.47;;;;;;;22.63;69.70;99518.45;1804345;79;25601;-66
2021/08/31 08:46:06;;;;;;;3.47;3.17;;;;;;;22.61;68.73;99523.02;1804796;79;32679;-64
2021/08/31 08:48:34;;;;;;;3.90;3.50;;;;;;;22.52;68.01;99517.97;1805662;79;26247;-66
2021/08/31 08:51:04;;;;;;;4.72;4.15;;;;;;;22.44;67.51;99523.97;1800109;79;26927;-66
2021/08/31 08:53:34;;;;;;;9.33;5.15;;;;;;;22.38;67.38;99519.50;1801995;79;25786;-66
2021/08/31 08:56:03;;;;;;;4.67;3.62;;;;;;;22.31;67.28;99523.10;1804412;79;25648;-66
2021/08/31 08:58:30;;;;;;;5.40;4.60;;;;;;;22.18;66.37;99526.91;1805353;79;25793;-65
2021/08/31 09:01:11;;;;;;;4.30;3.90;;;;;;;22.03;66.59;99530.19;1802130;79;26225;-66
2021/08/31 09:03:41;;;;;;;4.92;4.50;;;;;;;21.87;65.83;99536.22;1797846;79;27373;-66
2021/08/31 09:06:18;;;;;;;4.97;4.40;;;;;;;21.71;66.28;99538.08;1801223;79;25961;-66
2021/08/31 09:08:57;;;;;;;6.10;4.50;;;;;;;21.57;66.28;99532.88;1801285;79;25668;-66
2021/08/31 09:11:46;;;;;;;5.00;4.60;;;;;;;21.43;66.22;99537.81;1801112;79;25902;-66
2021/08/31 09:14:29;;;;;;;6.33;4.50;;;;;;;21.30;66.79;99542.80;1801385;79;26388;-65
2021/08/31 09:17:01;;;;;;;5.90;4.67;;;;;;;21.19;66.63;99545.00;1768080;79;27322;-66
2021/08/31 09:19:32;;;;;;;5.50;5.00;;;;;;;21.09;66.89;99544.45;1801075;79;25867;-66
2021/08/31 09:22:24;;;;;;;7.15;5.22;;;;;;;21.00;66.95;99543.50;1801493;79;25743;-66
2021/08/31 09:25:11;;;;;;;5.37;4.70;;;;;;;20.93;66.78;99544.13;1803367;79;25623;-65
2021/08/31 09:27:46;;;;;;;5.28;4.75;;;;;;;20.90;67.50;99547.07;1803758;79;25754;-65
2021/08/31 09:30:32;;;;;;;5.00;4.58;;;;;;;20.96;68.17;99550.19;1805703;79;27323;-66
2021/08/31 09:33:10;;;;;;;7.45;4.72;;;;;;;21.00;67.93;99549.00;1803984;79;25933;-64
2021/08/31 09:35:43;;;;;;;5.30;4.80;;;;;;;20.97;67.22;99549.79;1806796;79;25705;-64
2021/08/31 09:38:20;;;;;;;6.35;4.85;;;;;;;20.93;67.35;99552.37;1800984;79;25819;-65
2021/08/31 09:40:51;;;;;;;5.90;5.30;;;;;;;20.90;67.48;99553.94;1802349;79;26348;-65
2021/08/31 09:43:22;;;;;;;7.47;6.17;;;;;;;20.92;67.64;99554.92;1805884;79;27319;-66
2021/08/31 09:45:51;;;;;;;7.90;5.92;;;;;;;20.97;66.89;99562.77;1751750;81;25867;-64
2021/08/31 09:48:23;;;;;;;6.00;5.50;;;;;;;20.88;66.30;99563.95;1804399;79;25711;-63
2021/08/31 09:50:56;;;;;;;7.17;5.95;;;;;;;20.88;66.41;99568.08;1804105;79;26069;-62
2021/08/31 09:53:30;;;;;;;6.67;6.08;;;;;;;20.87;66.20;99565.16;1801190;79;25836;-63
2021/08/31 09:56:06;;;;;;;6.60;5.80;;;;;;;20.76;65.96;99572.63;1804510;79;28027;-63
2021/08/31 09:58:42;;;;;;;8.35;6.15;;;;;;;20.75;66.45;99568.30;1803085;79;25790;-62
2021/08/31 10:01:10;;;;;;;6.75;5.92;;;;;;;20.73;66.11;99568.52;1799144;79;25789;-64
2021/08/31 10:03:39;;;;;;;7.40;5.67;;;;;;;20.70;66.47;99567.33;1801084;79;26700;-63
2021/08/31 10:06:08;;;;;;;6.75;5.83;;;;;;;20.74;67.30;99557.13;1802584;79;25761;-63
2021/08/31 10:08:39;;;;;;;8.20;5.92;;;;;;;20.78;66.27;99546.91;1805266;79;27320;-63
2021/08/31 10:11:06;;;;;;;7.35;5.67;;;;;;;20.80;66.09;99555.53;1804676;79;26372;-65
2021/08/31 10:13:38;;;;;;;6.53;5.58;;;;;;;20.82;66.34;99554.56;1795432;79;25803;-65
2021/08/31 10:16:06;;;;;;;5.92;5.35;;;;;;;20.85;66.29;99549.63;1798016;79;26463;-65
2021/08/31 10:18:33;;;;;;;5.35;4.83;;;;;;;20.82;66.12;99550.45;1802011;79;25715;-67
2021/08/31 10:21:13;;;;;;;5.12;4.70;;;;;;;20.97;66.40;99556.66;1762658;80;27397;-66
2021/08/31 10:23:43;;;;;;;;;;;;;;;21.16;66.98;99556.02;1732460;80;25926;-66
2021/08/31 10:26:31;;;;;;;5.45;4.95;;;;;;;21.70;67.18;99560.70;1751452;80;26328;-64
2021/08/31 10:29:26;;;;;;;5.30;4.80;;;;;;;22.15;66.23;99559.98;1755181;80;26416;-66
2021/08/31 10:31:55;;;;;;;5.05;4.62;;;;;;;22.41;64.43;99560.59;1665144;85;25881;-62
2021/08/31 10:34:39;;;;;;;4.75;4.35;;;;;;;22.52;63.87;99555.77;1653994;86;27330;-63
2021/08/31 10:37:10;;;;;;;5.90;4.87;;;;;;;22.60;63.78;99559.26;1648567;86;25927;-62
2021/08/31 10:39:51;;;;;;;4.87;4.47;;;;;;;22.70;63.26;99563.28;1663220;85;25908;-63
2021/08/31 10:42:39;;;;;;;4.22;3.92;;;;;;;22.73;62.82;99565.80;1669912;85;26260;-63
2021/08/31 10:45:27;;;;;;;5.75;4.17;;;;;;;22.74;62.72;99568.14;1632098;87;26463;-63
2021/08/31 10:47:56;;;;;;;4.92;4.15;;;;;;;22.80;62.72;99567.70;1666743;85;26565;-63
2021/08/31 10:50:31;;;;;;;4.12;3.62;;;;;;;22.89;62.82;99573.52;1659171;85;25416;-66
2021/08/31 10:53:02;;;;;;;4.70;3.87;;;;;;;23.00;62.67;99569.27;1666931;85;25467;-64
2021/08/31 10:55:34;;;;;;;4.28;3.87;;;;;;;23.05;61.81;99568.81;1663042;85;26205;-65
2021/08/31 10:58:04;;;;;;;3.37;3.17;;;;;;;23.07;61.52;99565.87;1676522;84;25896;-65
2021/08/31 11:00:37;;;;;;;3.67;3.08;;;;;;;23.02;60.83;99572.38;1667993;85;27560;-64
2021/08/31 11:03:03;;;;;;;3.10;2.90;;;;;;;23.01;60.73;99576.36;1666577;85;26232;-65
2021/08/31 11:05:34;;;;;;;3.67;3.35;;;;;;;22.99;60.59;99567.72;1666353;85;25894;-65
2021/08/31 11:08:05;;;;;;;4.00;3.30;;;;;;;23.03;60.85;99573.96;1680792;84;25774;-64
2021/08/31 11:10:35;;;;;;;3.70;3.40;;;;;;;23.03;60.23;99578.09;1729943;82;25636;-64
2021/08/31 11:13:16;;;;;;;3.83;3.52;;;;;;;22.99;59.97;99573.23;1731503;82;26969;-61
2021/08/31 11:15:44;;;;;;;4.85;3.37;;;;;;;22.96;60.07;99572.06;1730055;82;25843;-64
2021/08/31 11:18:17;;;;;;;3.60;3.30;;;;;;;23.02;60.27;99573.19;1702260;83;26325;-63
2021/08/31 11:20:48;;;;;;;5.92;3.37;;;;;;;23.23;60.73;99570.02;1729422;80;25869;-64
2021/08/31 11:23:19;;;;;;;3.20;3.00;;;;;;;23.44;60.23;99570.34;1773850;80;26371;-66
2021/08/31 11:25:50;;;;;;;3.58;3.25;;;;;;;23.60;58.97;99567.77;1773039;80;27339;-65
2021/08/31 11:28:20;;;;;;;3.10;2.90;;;;;;;23.70;58.98;99556.40;1770967;80;26211;-66
2021/08/31 11:31:12;;;;;;;3.60;3.12;;;;;;;24.09;59.01;99558.39;1800847;78;25957;-65
2021/08/31 11:33:40;;;;;;;5.00;3.25;;;;;;;24.48;59.19;99561.88;1775855;80;26273;-66
2021/08/31 11:36:14;;;;;;;3.40;3.08;;;;;;;24.95;57.73;99563.83;1774382;80;25880;-65
2021/08/31 11:38:54;;;;;;;3.27;3.08;;;;;;;25.43;58.01;99564.47;1738631;82;28768;-65
2021/08/31 11:41:31;;;;;;;5.35;3.90;;;;;;;25.84;56.69;99554.86;1737900;81;25757;-63
2021/08/31 11:44:12;;;;;;;5.25;3.62;;;;;;;25.90;55.51;99555.30;1705233;83;25852;-65
2021/08/31 11:46:53;;;;;;;3.92;3.02;;;;;;;25.81;54.51;99556.52;1740559;82;25805;-66
2021/08/31 11:49:29;;;;;;;5.20;3.27;;;;;;;25.77;54.69;99550.87;1736740;81;26401;-65
2021/08/31 11:52:07;;;;;;;4.15;3.00;;;;;;;25.72;54.25;99546.00;1728777;82;28038;-65
2021/08/31 11:54:42;;;;;;;5.15;3.17;;;;;;;25.65;54.27;99554.48;1723126;82;25739;-65
2021/08/31 11:57:18;;;;;;;3.72;2.77;;;;;;;25.67;54.33;99547.12;1750940;79;25741;-65
2021/08/31 11:59:52;;;;;;;4.08;3.15;;;;;;;25.97;54.28;99546.69;1746684;81;25877;-65
2021/08/31 12:02:26;;;;;;;4.85;2.95;;;;;;;26.54;55.12;99546.61;1759093;79;26507;-65
2021/08/31 12:05:01;;;;;;;5.65;3.00;;;;;;;27.25;54.37;99541.72;1722882;82;27401;-65
2021/08/31 12:07:32;;;;;;;4.03;2.80;;;;;;;27.93;53.47;99542.45;1736801;82;25799;-64
2021/08/31 12:10:03;;;;;;;4.80;2.60;;;;;;;28.36;51.41;99553.39;1736072;82;26268;-64
2021/08/31 12:12:31;;;;;;;4.08;2.70;;;;;;;28.63;50.83;99546.70;1735433;82;26491;-64
2021/08/31 12:14:58;;;;;;;4.22;2.80;;;;;;;28.63;49.37;99545.31;1735652;82;26107;-64
2021/08/31 12:17:38;;;;;;;3.45;3.15;;;;;;;28.35;48.70;99540.70;1807299;79;27984;-64